Bay City, Oregon
Current Conditions -  °F | °C
As of 12:15 AM on Tuesday 21 Oct 2014 (Local Time) from KTMK Reporting Station
Moderate Rain Moderate Rain  
Wind Chill: 13°   Ceiling: 2500
Heat Index: 13°   Visibility: 5mi
Dew Point: 12°   Wind: 7mph
Humidity: 94%   Direction: 170°S
Pressure: 29.85"   Gusts: 10mph
Location:  45.52°N, 123.89°W
Report Text: KTMK 210715Z AUTO 17006G09KT 5SM RA SCT013 BKN025 OVC048 13/12 A2985 RMK AO2 P0002
Loading
Personal Weather Stations






























Interactive Weather Map
Tropical Storm Tracking
New forecast layout! Learn more

10-Day Weather Forecast

Advertisements
Track Severe Weather on mobile